Time;durP1;ratioP1;P1;durP2;ratioP2;P2;SDS_P1;SDS_P2;PMS_P1;PMS_P2;Temp;Humidity;BMP_temperature;BMP_pressure;BME280_temperature;BME280_humidity;BME280_pressure;Samples;Min_cycle;Max_cycle;Signal;HPM_P1;HPM_P2
2023/05/16 00:01:34;;;;;;;17.30;2.63;;;;;;;-145.18;100.00;46715.09;4951139;29;20126;-70
2023/05/16 00:04:00;;;;;;;9.03;1.50;;;;;;;-145.18;100.00;46711.19;4947640;29;20047;-70
2023/05/16 00:06:25;;;;;;;10.83;1.63;;;;;;;-145.18;100.00;46715.09;4951053;29;20746;-70
2023/05/16 00:08:50;;;;;;;14.17;1.53;;;;;;;-145.18;100.00;46709.22;4951320;29;20039;-69
2023/05/16 00:11:16;;;;;;;11.20;2.10;;;;;;;-145.18;100.00;46715.09;4950811;28;20039;-69
2023/05/16 00:13:42;;;;;;;8.47;1.57;;;;;;;-145.18;100.00;46711.19;4954829;29;20143;-70
2023/05/16 00:16:08;;;;;;;8.40;1.67;;;;;;;-145.18;100.00;46715.09;4954708;29;20036;-69
2023/05/16 00:18:36;;;;;;;13.47;1.80;;;;;;;-145.18;100.00;46711.19;4954637;29;20070;-69
2023/05/16 00:21:03;;;;;;;24.30;1.97;;;;;;;-145.18;100.00;46717.03;4955107;29;20070;-70
2023/05/16 00:23:29;;;;;;;16.30;2.03;;;;;;;-145.18;100.00;46715.09;4954321;29;20273;-69
2023/05/16 00:25:54;;;;;;;9.53;2.10;;;;;;;-145.18;100.00;46719.00;4954991;29;20296;-69
2023/05/16 00:28:20;;;;;;;10.90;1.17;;;;;;;-145.18;100.00;46720.94;4954505;29;20066;-69
2023/05/16 00:30:45;;;;;;;10.70;2.10;;;;;;;-145.18;100.00;46717.03;4954599;29;20451;-69
2023/05/16 00:33:11;;;;;;;7.10;1.23;;;;;;;-145.18;100.00;46713.13;4954350;29;20122;-69
2023/05/16 00:35:36;;;;;;;12.43;1.67;;;;;;;-145.18;100.00;46717.03;4939611;29;20390;-69
2023/05/16 00:38:01;;;;;;;16.83;1.87;;;;;;;-145.18;100.00;46715.09;4935213;29;20051;-69
2023/05/16 00:40:27;;;;;;;9.47;1.20;;;;;;;-145.18;100.00;46717.03;4918141;29;20505;-69
2023/05/16 00:42:52;;;;;;;8.47;1.83;;;;;;;-145.18;100.00;46713.13;4935192;29;20091;-69
2023/05/16 00:45:17;;;;;;;9.47;1.40;;;;;;;-145.18;100.00;46717.03;4950440;29;20392;-69
2023/05/16 00:47:43;;;;;;;15.13;1.97;;;;;;;-145.18;100.00;46713.13;4950893;29;20063;-69
2023/05/16 00:50:09;;;;;;;8.33;1.30;;;;;;;-145.18;100.00;46715.09;4935148;29;20048;-69
2023/05/16 00:52:35;;;;;;;16.30;2.13;;;;;;;-145.18;100.00;46719.00;4941881;29;20032;-70
2023/05/16 00:55:01;;;;;;;13.20;2.30;;;;;;;-145.18;100.00;46711.19;4953976;29;20273;-69
2023/05/16 00:57:27;;;;;;;13.70;2.50;;;;;;;-145.18;100.00;46715.09;4953955;29;20510;-70
2023/05/16 00:59:53;;;;;;;15.90;1.97;;;;;;;-145.18;100.00;46719.00;4954164;29;20340;-69
2023/05/16 01:02:19;;;;;;;12.63;3.13;;;;;;;-145.18;100.00;46713.13;4953554;29;20090;-70
2023/05/16 01:04:47;;;;;;;8.43;1.63;;;;;;;-145.18;100.00;46713.13;4953647;29;20662;-70
2023/05/16 01:07:12;;;;;;;21.43;2.97;;;;;;;-145.18;100.00;46715.09;4953358;29;20043;-70
2023/05/16 01:09:38;;;;;;;13.70;1.50;;;;;;;-145.18;100.00;46719.00;4954084;29;20747;-69
2023/05/16 01:12:09;;;;;;;6.83;1.33;;;;;;;-145.18;100.00;46713.13;4953620;29;20031;-69
2023/05/16 01:15:02;;;;;;;5.07;1.67;;;;;;;-145.18;100.00;46713.13;4953896;29;20036;-69
2023/05/16 01:17:48;;;;;;;18.83;1.87;;;;;;;-145.18;100.00;46717.03;4953369;29;20364;-69
2023/05/16 01:20:35;;;;;;;6.88;1.40;;;;;;;-145.18;100.00;46709.22;4953917;29;20288;-69
2023/05/16 01:23:07;;;;;;;11.67;2.13;;;;;;;-145.18;100.00;46711.19;4953029;28;20033;-69
2023/05/16 01:26:05;;;;;;;9.53;2.10;;;;;;;-145.18;100.00;46711.19;4953013;29;20284;-69
2023/05/16 01:28:31;;;;;;;11.03;2.37;;;;;;;-145.18;100.00;46713.13;4936031;29;20269;-69
2023/05/16 01:30:56;;;;;;;12.20;1.80;;;;;;;-145.18;100.00;46713.13;4953461;29;20265;-69
2023/05/16 01:33:22;;;;;;;9.43;1.97;;;;;;;-145.18;100.00;46711.19;4953091;29;20047;-69
2023/05/16 01:36:10;;;;;;;15.47;2.47;;;;;;;-145.18;100.00;46707.28;4953242;29;20079;-69
2023/05/16 01:38:42;;;;;;;10.17;1.33;;;;;;;-145.18;100.00;46709.22;4953259;29;20043;-69
2023/05/16 01:41:17;;;;;;;5.43;1.50;;;;;;;-145.18;100.00;46713.13;4953325;29;20429;-69
2023/05/16 01:43:47;;;;;;;14.25;1.55;;;;;;;-145.18;100.00;46705.31;4953015;29;20324;-69
2023/05/16 01:46:19;;;;;;;11.30;1.37;;;;;;;-145.18;100.00;46713.13;4952876;29;20039;-69
2023/05/16 01:48:56;;;;;;;9.70;1.67;;;;;;;-145.18;100.00;46711.19;4953084;29;20671;-69
2023/05/16 01:51:25;;;;;;;15.33;1.50;;;;;;;-145.18;100.00;46709.22;4953113;29;20273;-69
2023/05/16 01:53:51;;;;;;;16.87;2.33;;;;;;;-145.18;100.00;46711.19;4952702;29;20297;-69
2023/05/16 01:56:17;;;;;;;9.73;1.87;;;;;;;-145.18;100.00;46703.38;4952944;29;20285;-69
2023/05/16 01:58:45;;;;;;;10.27;1.60;;;;;;;-145.18;100.00;46709.22;4952792;29;20421;-69
2023/05/16 02:03:46;;;;;;;4.13;1.73;;;;;;;-145.18;100.00;46709.22;4819476;23;20309;-70
2023/05/16 02:06:11;;;;;;;11.30;1.70;;;;;;;-145.18;100.00;46701.41;4972480;28;20046;-70
2023/05/16 02:08:37;;;;;;;14.00;1.70;;;;;;;-145.18;100.00;46705.31;4972102;28;20030;-70
2023/05/16 02:11:02;;;;;;;22.93;2.23;;;;;;;-145.18;100.00;46709.22;4953371;28;20093;-69
2023/05/16 02:13:28;;;;;;;8.37;1.53;;;;;;;-145.18;100.00;46699.47;4954369;28;20039;-69
2023/05/16 02:15:53;;;;;;;14.50;2.00;;;;;;;-145.18;100.00;46705.31;4972235;28;20105;-69
2023/05/16 02:18:18;;;;;;;13.83;2.00;;;;;;;-145.18;100.00;46705.31;4964954;28;20043;-69
2023/05/16 02:20:44;;;;;;;22.57;2.87;;;;;;;-145.18;100.00;46707.28;4968383;28;20134;-69
2023/05/16 02:23:10;;;;;;;7.33;1.73;;;;;;;-145.18;100.00;46703.38;4971703;28;20502;-69
2023/05/16 02:25:35;;;;;;;12.13;1.70;;;;;;;-145.18;100.00;46703.38;4971975;28;20117;-69
2023/05/16 02:28:00;;;;;;;14.20;3.17;;;;;;;-145.18;100.00;46701.41;4971780;28;20035;-70
2023/05/16 02:30:26;;;;;;;10.17;1.87;;;;;;;-145.18;100.00;46705.31;4959343;28;20039;-69
2023/05/16 02:32:52;;;;;;;12.83;1.73;;;;;;;-145.18;100.00;46695.56;4919363;29;20043;-69
2023/05/16 02:35:18;;;;;;;13.17;2.43;;;;;;;-145.18;100.00;46697.50;4952662;28;20085;-69
2023/05/16 02:37:43;;;;;;;15.50;3.00;;;;;;;-145.18;100.00;46701.41;4952481;29;20269;-69
2023/05/16 02:40:09;;;;;;;13.27;2.13;;;;;;;-145.18;100.00;46697.50;4962162;28;20054;-69
2023/05/16 02:42:34;;;;;;;18.03;2.30;;;;;;;-145.18;100.00;46699.47;4971978;28;20038;-69
2023/05/16 02:45:00;;;;;;;6.90;1.87;;;;;;;-145.18;100.00;46697.50;4971779;28;20101;-69
2023/05/16 02:47:25;;;;;;;13.27;2.30;;;;;;;-145.18;100.00;46689.69;4971149;28;20122;-69
2023/05/16 02:49:51;;;;;;;9.10;2.10;;;;;;;-145.18;100.00;46691.66;4963984;28;20126;-70
2023/05/16 02:52:17;;;;;;;14.87;1.87;;;;;;;-145.18;100.00;46703.38;4952374;29;20067;-69
2023/05/16 02:54:42;;;;;;;15.90;2.73;;;;;;;-145.18;100.00;46703.38;4952446;29;20393;-69
2023/05/16 02:57:08;;;;;;;15.33;2.30;;;;;;;-145.18;100.00;46689.69;4952121;29;20266;-69
2023/05/16 02:59:35;;;;;;;5.80;1.87;;;;;;;-145.18;100.00;46693.59;4958814;28;20618;-70
2023/05/16 03:02:00;;;;;;;16.67;2.03;;;;;;;-145.18;100.00;46703.38;4964144;28;20062;-69
2023/05/16 03:04:26;;;;;;;9.27;1.70;;;;;;;-145.18;100.00;46703.38;4952030;29;21106;-69
2023/05/16 03:06:51;;;;;;;12.43;2.13;;;;;;;-145.18;100.00;46691.66;4951997;29;20040;-70
2023/05/16 03:09:16;;;;;;;12.53;1.87;;;;;;;-145.18;100.00;46697.50;4948050;29;20496;-70
2023/05/16 03:11:42;;;;;;;10.73;2.10;;;;;;;-145.18;100.00;46691.66;4933267;29;20044;-70
2023/05/16 03:14:08;;;;;;;14.83;2.20;;;;;;;-145.18;100.00;46691.66;4932803;29;20032;-70
2023/05/16 03:16:35;;;;;;;11.37;1.80;;;;;;;-145.18;100.00;46689.69;4933153;29;20138;-70
2023/05/16 03:19:00;;;;;;;15.03;2.40;;;;;;;-145.18;100.00;46701.41;4936557;29;20774;-70
2023/05/16 03:21:26;;;;;;;10.47;2.00;;;;;;;-145.18;100.00;46687.75;4952350;29;20273;-70
2023/05/16 03:23:51;;;;;;;13.27;2.13;;;;;;;-145.18;100.00;46695.56;4951899;29;20384;-70
2023/05/16 03:26:17;;;;;;;14.77;2.10;;;;;;;-145.18;100.00;46683.84;4952031;29;20036;-70
2023/05/16 03:28:42;;;;;;;18.37;2.23;;;;;;;-145.18;100.00;46685.78;4950317;29;20508;-70
2023/05/16 03:31:07;;;;;;;11.13;2.10;;;;;;;-145.18;100.00;46687.75;4932772;29;20032;-70
2023/05/16 03:33:33;;;;;;;13.00;2.37;;;;;;;-145.18;100.00;46683.84;4932756;29;20114;-70
2023/05/16 03:35:58;;;;;;;12.50;2.17;;;;;;;-145.18;100.00;46691.66;4932882;29;20150;-70
2023/05/16 03:38:23;;;;;;;17.67;2.07;;;;;;;-145.18;100.00;46687.75;4933707;29;20163;-70
2023/05/16 03:40:50;;;;;;;8.23;1.47;;;;;;;-145.18;100.00;46689.69;4951861;29;20035;-70
2023/05/16 03:43:15;;;;;;;10.20;2.00;;;;;;;-145.18;100.00;46687.75;4951341;29;20038;-70
2023/05/16 03:45:40;;;;;;;13.07;2.00;;;;;;;-145.18;100.00;46683.84;4951830;28;20313;-70
2023/05/16 03:48:07;;;;;;;15.17;2.30;;;;;;;-145.18;100.00;46681.88;4954460;29;20404;-70
2023/05/16 03:50:33;;;;;;;9.47;2.27;;;;;;;-145.18;100.00;46687.75;4937583;29;20045;-70
2023/05/16 03:52:58;;;;;;;16.10;2.23;;;;;;;-145.18;100.00;46679.94;4946257;28;20290;-69
2023/05/16 03:55:23;;;;;;;7.37;1.83;;;;;;;-145.18;100.00;46687.75;4940689;29;20039;-69
2023/05/16 03:57:51;;;;;;;9.77;2.03;;;;;;;-145.18;100.00;46687.75;4943299;29;20035;-69
2023/05/16 04:00:16;;;;;;;7.47;2.00;;;;;;;-145.18;100.00;46685.78;4945409;29;20039;-68
2023/05/16 04:02:42;;;;;;;11.80;2.47;;;;;;;-145.18;100.00;46689.69;4941373;28;20286;-69
2023/05/16 04:05:09;;;;;;;16.20;2.40;;;;;;;-145.18;100.00;46687.75;4944414;29;20060;-69
2023/05/16 04:07:36;;;;;;;14.27;2.10;;;;;;;-145.18;100.00;46683.84;4945335;29;20404;-69
2023/05/16 04:10:02;;;;;;;13.03;1.97;;;;;;;-145.18;100.00;46683.84;4948215;29;20993;-69
2023/05/16 04:12:27;;;;;;;13.83;2.03;;;;;;;-145.18;100.00;46691.66;4944138;29;20281;-69
2023/05/16 04:14:53;;;;;;;11.23;1.57;;;;;;;-145.18;100.00;46693.59;4945925;29;20647;-69
2023/05/16 04:17:18;;;;;;;12.10;1.87;;;;;;;-145.18;100.00;46685.78;4947811;29;20271;-69
2023/05/16 04:19:44;;;;;;;16.47;1.50;;;;;;;-145.18;100.00;46691.66;4946695;29;20488;-69
2023/05/16 04:22:09;;;;;;;13.77;2.03;;;;;;;-145.18;100.00;46689.69;4946324;29;20085;-69
2023/05/16 04:24:35;;;;;;;13.33;1.87;;;;;;;-145.18;100.00;46691.66;4944093;29;20044;-69
2023/05/16 04:27:00;;;;;;;10.73;1.80;;;;;;;-145.18;100.00;46693.59;4942494;29;20042;-69
2023/05/16 04:29:26;;;;;;;13.20;2.37;;;;;;;-145.18;100.00;46697.50;4944535;29;20073;-69
2023/05/16 04:31:51;;;;;;;6.10;1.87;;;;;;;-145.18;100.00;46701.41;4947926;29;20120;-70
2023/05/16 04:34:16;;;;;;;16.80;2.20;;;;;;;-145.18;100.00;46701.41;4942853;29;20040;-70
2023/05/16 04:36:42;;;;;;;13.17;1.90;;;;;;;-145.18;100.00;46693.59;4940911;29;20119;-70
2023/05/16 04:39:07;;;;;;;11.90;1.80;;;;;;;-145.18;100.00;46699.47;4946168;29;20067;-69
2023/05/16 04:41:34;;;;;;;17.73;1.80;;;;;;;-145.18;100.00;46701.41;4954205;29;20158;-69
2023/05/16 04:44:03;;;;;;;8.70;1.70;;;;;;;-145.18;100.00;46697.50;4944689;29;20027;-69
2023/05/16 04:46:28;;;;;;;4.37;1.80;;;;;;;-145.18;100.00;46701.41;4945854;29;20317;-69
2023/05/16 04:48:54;;;;;;;9.73;1.90;;;;;;;-145.18;100.00;46693.59;4943931;29;20357;-69
2023/05/16 04:51:20;;;;;;;9.80;2.23;;;;;;;-145.18;100.00;46693.59;4944583;29;20057;-69
2023/05/16 04:53:46;;;;;;;10.97;1.77;;;;;;;-145.18;100.00;46695.56;4944455;29;20074;-70
2023/05/16 04:56:11;;;;;;;10.03;1.70;;;;;;;-145.18;100.00;46695.56;4926845;29;20750;-69
2023/05/16 04:58:37;;;;;;;4.60;1.47;;;;;;;-145.18;100.00;46697.50;4949552;28;20035;-69
2023/05/16 05:01:02;;;;;;;9.77;2.23;;;;;;;-145.18;100.00;46695.56;4944098;29;20035;-69
2023/05/16 05:03:28;;;;;;;10.20;1.60;;;;;;;-145.18;100.00;46693.59;4970599;28;20051;-70
2023/05/16 05:05:53;;;;;;;8.40;1.57;;;;;;;-145.18;100.00;46699.47;4972263;28;20626;-70
2023/05/16 05:08:20;;;;;;;14.37;2.23;;;;;;;-145.18;100.00;46701.41;4939921;28;20178;-69
2023/05/16 05:10:45;;;;;;;15.93;1.93;;;;;;;-145.18;100.00;46703.38;4935951;29;20039;-70
2023/05/16 05:13:11;;;;;;;8.53;1.77;;;;;;;-145.18;100.00;46701.41;4934828;29;20638;-70
2023/05/16 05:15:36;;;;;;;7.60;1.20;;;;;;;-145.18;100.00;46709.22;4950930;29;20042;-70
2023/05/16 05:18:02;;;;;;;8.67;2.00;;;;;;;-145.18;100.00;46703.38;4952493;29;20656;-70
2023/05/16 05:20:27;;;;;;;9.23;1.23;;;;;;;-145.18;100.00;46703.38;4953612;29;20046;-69
2023/05/16 05:22:52;;;;;;;17.50;1.70;;;;;;;-145.18;100.00;46695.56;4952846;29;20070;-70
2023/05/16 05:25:18;;;;;;;7.40;1.47;;;;;;;-145.18;100.00;46697.50;4940494;29;20083;-70
2023/05/16 05:27:43;;;;;;;16.27;1.60;;;;;;;-145.18;100.00;46701.41;4934102;29;20122;-70
2023/05/16 05:30:10;;;;;;;11.43;1.53;;;;;;;-145.18;100.00;46701.41;4934239;29;20054;-70
2023/05/16 05:32:35;;;;;;;6.97;2.07;;;;;;;-145.18;100.00;46699.47;4934418;29;20091;-70
2023/05/16 05:35:01;;;;;;;7.03;1.43;;;;;;;-145.18;100.00;46697.50;4934476;29;20655;-69
2023/05/16 05:37:26;;;;;;;22.10;1.77;;;;;;;-145.18;100.00;46689.69;4934564;29;20040;-70
2023/05/16 05:39:52;;;;;;;9.90;1.23;;;;;;;-145.18;100.00;46683.84;4934095;29;20083;-69
2023/05/16 05:42:17;;;;;;;13.47;1.67;;;;;;;-145.18;100.00;46664.31;4934117;29;20019;-69
2023/05/16 05:44:42;;;;;;;6.90;1.50;;;;;;;-145.18;100.00;46633.06;4934272;29;20044;-70
2023/05/16 05:47:08;;;;;;;10.37;1.30;;;;;;;-145.18;100.00;46597.88;4934136;29;20032;-70
2023/05/16 05:49:34;;;;;;;7.03;1.13;;;;;;;-145.18;100.00;46588.13;4944749;29;20032;-70
2023/05/16 05:52:00;;;;;;;5.60;1.33;;;;;;;-145.18;100.00;46582.25;4951982;29;20747;-70
2023/05/16 05:54:26;;;;;;;5.47;0.93;;;;;;;-145.18;100.00;46570.53;4953014;29;20273;-70
2023/05/16 05:56:51;;;;;;;10.93;1.50;;;;;;;-145.18;100.00;46570.53;4952822;29;20035;-70
2023/05/16 05:59:17;;;;;;;8.70;1.77;;;;;;;-145.18;100.00;46566.63;4953122;29;20059;-70
2023/05/16 06:01:45;;;;;;;5.80;1.20;;;;;;;-145.18;100.00;46568.59;4943574;29;20067;-70
2023/05/16 06:04:10;;;;;;;9.43;1.20;;;;;;;-145.18;100.00;46576.41;4933383;28;20130;-70
2023/05/16 06:06:37;;;;;;;8.50;1.20;;;;;;;-145.18;100.00;46574.44;4926220;29;20368;-70
2023/05/16 06:09:02;;;;;;;7.30;1.40;;;;;;;-145.18;100.00;46582.25;4952107;28;20113;-70
2023/05/16 06:11:28;;;;;;;11.60;1.83;;;;;;;-145.18;100.00;46572.50;4935190;29;20369;-70
2023/05/16 06:13:53;;;;;;;6.60;1.40;;;;;;;-145.18;100.00;46572.50;4940037;29;20036;-71
2023/05/16 06:16:22;;;;;;;10.97;1.40;;;;;;;-145.18;100.00;46576.41;4951405;28;20046;-70
2023/05/16 06:18:48;;;;;;;5.70;1.00;;;;;;;-145.18;100.00;46578.34;4943945;28;20050;-70
2023/05/16 06:21:14;;;;;;;12.17;1.60;;;;;;;-145.18;100.00;46580.31;4933935;29;20286;-70
2023/05/16 06:23:39;;;;;;;4.97;1.10;;;;;;;-145.18;100.00;46582.25;4952335;29;20461;-70
2023/05/16 06:26:05;;;;;;;11.73;1.30;;;;;;;-145.18;100.00;46582.25;4937348;29;20702;-70
2023/05/16 06:28:30;;;;;;;8.23;1.27;;;;;;;-145.18;100.00;46590.06;4916457;29;20065;-70
2023/05/16 06:30:56;;;;;;;10.20;1.40;;;;;;;-145.18;100.00;46590.06;4933899;29;20083;-70
2023/05/16 06:33:21;;;;;;;14.83;1.23;;;;;;;-145.18;100.00;46597.88;4932285;29;20039;-70
2023/05/16 06:35:47;;;;;;;7.30;1.07;;;;;;;-145.18;100.00;46590.06;4933550;29;20137;-70
2023/05/16 06:38:13;;;;;;;6.00;1.50;;;;;;;-145.18;100.00;46593.97;4933170;29;20031;-70
2023/05/16 06:40:39;;;;;;;12.10;1.70;;;;;;;-145.18;100.00;46599.84;4935213;29;20786;-70
2023/05/16 06:43:05;;;;;;;8.87;1.10;;;;;;;-145.18;100.00;46599.84;4932437;29;20282;-71
2023/05/16 06:45:30;;;;;;;10.40;1.33;;;;;;;-145.18;100.00;46609.59;4934490;29;20039;-70
2023/05/16 06:47:56;;;;;;;4.37;0.97;;;;;;;-145.18;100.00;46617.41;4939824;29;20038;-70
2023/05/16 06:50:21;;;;;;;7.43;1.30;;;;;;;-145.18;100.00;46635.00;4932640;29;20509;-71
2023/05/16 06:52:47;;;;;;;7.63;1.07;;;;;;;-145.18;100.00;46636.94;4932154;29;20055;-70
2023/05/16 06:55:13;;;;;;;10.53;1.80;;;;;;;-145.18;100.00;46654.53;4935504;28;20031;-70
2023/05/16 06:57:38;;;;;;;1.77;0.50;;;;;;;-145.18;100.00;46646.72;4942863;29;20171;-70
2023/05/16 07:00:04;;;;;;;4.70;1.03;;;;;;;-145.18;100.00;46664.31;4932781;29;20562;-70
2023/05/16 07:02:30;;;;;;;6.30;0.83;;;;;;;-145.18;100.00;46693.59;4935358;29;20052;-70
2023/05/16 07:04:55;;;;;;;8.53;1.50;;;;;;;-145.18;100.00;46672.13;4945126;29;20503;-70
2023/05/16 07:07:21;;;;;;;5.23;0.70;;;;;;;-145.18;100.00;46683.84;4940952;29;20047;-70
2023/05/16 07:09:46;;;;;;;3.23;0.53;;;;;;;-145.18;100.00;46697.50;4942506;29;20126;-70
2023/05/16 07:12:11;;;;;;;4.37;0.70;;;;;;;-145.18;100.00;46709.22;4942392;29;20516;-70
2023/05/16 07:14:37;;;;;;;1.17;0.43;;;;;;;-145.18;100.00;46687.75;4942646;29;20509;-70
2023/05/16 07:17:03;;;;;;;5.07;0.80;;;;;;;-145.18;100.00;46699.47;4940874;29;20818;-71
2023/05/16 07:19:28;;;;;;;5.47;0.70;;;;;;;-145.18;100.00;46711.19;4947835;29;20043;-70
2023/05/16 07:21:53;;;;;;;5.87;0.90;;;;;;;-145.18;100.00;46728.75;4953050;28;20085;-70
2023/05/16 07:24:19;;;;;;;6.57;1.00;;;;;;;-145.18;100.00;46719.00;4955892;29;20043;-70
2023/05/16 07:26:44;;;;;;;4.30;0.90;;;;;;;-145.18;100.00;46713.13;4955810;29;20082;-70
2023/05/16 07:29:10;;;;;;;6.40;1.10;;;;;;;-145.18;100.00;46722.91;4942502;29;20400;-70
2023/05/16 07:31:36;;;;;;;4.57;0.83;;;;;;;-145.18;100.00;46719.00;4936967;29;20071;-70
2023/05/16 07:34:01;;;;;;;3.93;1.30;;;;;;;-145.18;100.00;46709.22;4947573;29;20133;-71
2023/05/16 07:36:26;;;;;;;8.30;0.70;;;;;;;-145.18;100.00;46730.72;4939692;29;20609;-71
2023/05/16 07:38:52;;;;;;;1.03;0.60;;;;;;;-145.18;100.00;46748.28;4936141;29;20492;-70
2023/05/16 07:41:17;;;;;;;5.60;0.97;;;;;;;-145.18;100.00;46789.31;4952614;29;20121;-70
2023/05/16 07:43:42;;;;;;;3.37;1.07;;;;;;;-145.18;100.00;46810.81;4952080;29;20515;-70
2023/05/16 07:46:09;;;;;;;2.73;1.13;;;;;;;-145.18;100.00;46842.06;4943742;29;20047;-70
2023/05/16 07:48:35;;;;;;;8.90;0.97;;;;;;;-145.18;100.00;46857.69;4955404;29;20042;-70
2023/05/16 07:51:00;;;;;;;4.67;0.57;;;;;;;-145.18;100.00;46957.31;4955484;29;20043;-70
2023/05/16 07:53:25;;;;;;;3.87;0.87;;;;;;;-145.18;100.00;46855.72;4952961;29;20044;-70
2023/05/16 07:55:51;;;;;;;4.23;0.70;;;;;;;-145.18;100.00;47316.78;4946217;29;20074;-70
2023/05/16 07:58:16;;;;;;;5.97;1.27;;;;;;;-145.18;100.00;47342.16;4955067;29;20654;-70
2023/05/16 08:00:42;;;;;;;3.47;0.63;;;;;;;-145.18;100.00;47473.06;4955677;29;20479;-70
2023/05/16 08:03:07;;;;;;;4.10;0.63;;;;;;;-145.18;100.00;47478.94;4953396;29;20055;-70
2023/05/16 08:05:32;;;;;;;6.10;1.07;;;;;;;-145.18;100.00;47373.44;4954389;29;20039;-70
2023/05/16 08:07:58;;;;;;;3.43;0.83;;;;;;;-145.18;100.00;47418.38;4942740;29;20485;-70
2023/05/16 08:10:23;;;;;;;11.53;0.70;;;;;;;-145.18;100.00;47228.84;4935097;29;20142;-70
2023/05/16 08:12:49;;;;;;;3.83;0.63;;;;;;;-145.18;100.00;47017.88;4934601;29;20043;-70
2023/05/16 08:15:14;;;;;;;5.13;0.90;;;;;;;-145.18;100.00;46883.09;4954233;29;20035;-70
2023/05/16 08:17:40;;;;;;;4.10;0.97;;;;;;;-145.18;100.00;46812.75;4951525;29;20066;-70
2023/05/16 08:20:06;;;;;;;4.37;0.57;;;;;;;-145.18;100.00;46816.66;4934399;29;20087;-70
2023/05/16 08:22:32;;;;;;;3.83;0.53;;;;;;;-145.18;100.00;46857.69;4934558;29;20520;-69
2023/05/16 08:24:59;;;;;;;5.27;1.10;;;;;;;-145.18;100.00;46826.44;4935913;29;20024;-70
2023/05/16 08:27:25;;;;;;;8.33;1.27;;;;;;;-145.18;100.00;46793.22;4953717;29;20059;-69
2023/05/16 08:29:50;;;;;;;4.60;0.80;;;;;;;-145.18;100.00;46828.38;4953705;29;20070;-69
2023/05/16 08:32:16;;;;;;;2.53;0.50;;;;;;;-145.18;100.00;47361.72;4946274;28;20039;-69
2023/05/16 08:34:41;;;;;;;1.83;0.67;;;;;;;-145.18;100.00;47482.84;4953434;29;20079;-69
2023/05/16 08:37:06;;;;;;;8.67;0.80;;;;;;;-145.18;100.00;47453.53;4952865;29;20549;-69
2023/05/16 08:39:32;;;;;;;4.70;1.27;;;;;;;-145.18;100.00;47418.38;4934317;29;20039;-69
2023/05/16 08:41:58;;;;;;;4.03;0.90;;;;;;;-145.18;100.00;47418.38;4934295;29;20044;-69
2023/05/16 08:44:23;;;;;;;6.30;1.10;;;;;;;-145.18;100.00;47391.00;4934944;29;20478;-69
2023/05/16 08:46:53;;;;;;;6.33;1.20;;;;;;;-145.18;100.00;47387.09;4934329;29;20040;-69
2023/05/16 08:49:20;;;;;;;5.20;0.90;;;;;;;-145.18;100.00;47394.91;4939128;29;20061;-69
2023/05/16 08:51:47;;;;;;;3.83;0.70;;;;;;;-145.18;100.00;47441.81;4953555;29;20671;-69
2023/05/16 08:54:14;;;;;;;4.50;0.70;;;;;;;-145.18;100.00;47445.72;4941553;29;20115;-69
2023/05/16 08:56:43;;;;;;;5.00;1.17;;;;;;;-145.18;100.00;47453.53;4926545;29;20457;-69
2023/05/16 08:59:11;;;;;;;2.57;1.20;;;;;;;-145.18;100.00;47428.13;4951786;29;20066;-69
2023/05/16 09:01:36;;;;;;;3.17;0.80;;;;;;;-145.18;100.00;47394.91;4953155;28;20069;-70
2023/05/16 09:04:04;;;;;;;2.67;0.60;;;;;;;-145.18;100.00;47381.25;4910277;29;1266390;-69
2023/05/16 09:06:30;;;;;;;4.20;0.90;;;;;;;-145.18;100.00;47406.63;4954243;29;20039;-69
2023/05/16 09:08:55;;;;;;;3.33;0.70;;;;;;;-145.18;100.00;47437.91;4937209;29;20045;-69
2023/05/16 09:11:21;;;;;;;6.90;0.77;;;;;;;-145.18;100.00;47445.72;4935239;29;20099;-69
2023/05/16 09:13:47;;;;;;;8.43;1.10;;;;;;;-145.18;100.00;47455.47;4934567;29;20039;-69
2023/05/16 09:16:15;;;;;;;4.73;0.70;;;;;;;-145.18;100.00;47392.97;4934843;29;20586;-69
2023/05/16 09:18:45;;;;;;;10.47;1.00;;;;;;;-145.18;100.00;47387.09;4945720;29;20066;-69
2023/05/16 09:21:12;;;;;;;3.70;0.70;;;;;;;-145.18;100.00;47400.78;4953954;29;20082;-70
2023/05/16 09:23:37;;;;;;;4.47;1.50;;;;;;;-145.18;100.00;47451.56;4928933;29;20043;-69
2023/05/16 09:26:06;;;;;;;4.70;1.07;;;;;;;-145.18;100.00;47428.13;4934522;29;20039;-69
2023/05/16 09:28:33;;;;;;;9.37;1.17;;;;;;;-145.18;100.00;47383.19;4934530;29;20107;-69
2023/05/16 09:30:58;;;;;;;3.03;0.50;;;;;;;-145.18;100.00;47381.25;4934354;29;20042;-69
2023/05/16 09:33:28;;;;;;;4.13;1.30;;;;;;;-145.18;100.00;47344.13;4934499;29;20039;-69
2023/05/16 09:36:01;;;;;;;1.93;0.60;;;;;;;-145.18;100.00;47371.47;4934660;29;20032;-69
2023/05/16 09:38:27;;;;;;;1.03;0.40;;;;;;;-145.18;100.00;47404.69;4934369;29;20087;-69
2023/05/16 09:40:54;;;;;;;5.10;0.60;;;;;;;-145.18;100.00;47398.81;4917157;29;20127;-69
2023/05/16 09:43:25;;;;;;;4.40;0.40;;;;;;;-145.18;100.00;47365.63;4938716;29;20027;-69
2023/05/16 09:45:50;;;;;;;9.67;0.70;;;;;;;-145.18;100.00;47369.53;4952663;28;20039;-69
2023/05/16 09:48:16;;;;;;;6.43;0.97;;;;;;;-145.18;100.00;47334.34;4934323;29;20040;-69
2023/05/16 09:50:51;;;;;;;2.57;0.87;;;;;;;-145.18;100.00;47338.25;4934182;29;20035;-69
2023/05/16 09:53:17;;;;;;;5.40;0.93;;;;;;;-145.18;100.00;47369.53;4933991;29;20031;-69
2023/05/16 09:55:42;;;;;;;2.83;0.70;;;;;;;-145.18;100.00;47412.50;4934327;29;20036;-69
2023/05/16 09:58:08;;;;;;;2.20;0.40;;;;;;;-145.18;100.00;47400.78;4934998;29;20142;-69
2023/05/16 10:00:33;;;;;;;5.73;1.00;;;;;;;-145.18;100.00;47359.75;4935769;29;20043;-69
2023/05/16 10:03:01;;;;;;;3.50;0.80;;;;;;;-145.18;100.00;47359.75;4952624;28;20058;-69
2023/05/16 10:05:27;;;;;;;3.30;0.80;;;;;;;-145.18;100.00;47365.63;4953172;29;20058;-69
2023/05/16 10:07:55;;;;;;;5.93;0.80;;;;;;;-145.18;100.00;47381.25;4953161;29;20036;-69
2023/05/16 10:10:21;;;;;;;7.53;0.80;;;;;;;-145.18;100.00;47414.47;4950614;29;20598;-69
2023/05/16 10:12:47;;;;;;;3.23;0.80;;;;;;;-145.18;100.00;47426.19;4933832;29;20047;-69
2023/05/16 10:15:13;;;;;;;3.80;0.90;;;;;;;-145.18;100.00;47363.66;4933719;29;20031;-69
2023/05/16 10:17:42;;;;;;;4.77;1.20;;;;;;;-145.18;100.00;47357.78;4933806;29;20046;-69
2023/05/16 10:20:10;;;;;;;3.70;0.73;;;;;;;-145.18;100.00;47330.44;4933232;29;20528;-69
2023/05/16 10:22:39;;;;;;;5.60;0.70;;;;;;;-145.18;100.00;47312.88;4952034;29;20031;-69
2023/05/16 10:25:09;;;;;;;3.03;0.63;;;;;;;-145.18;100.00;47310.91;4952574;29;20058;-69
2023/05/16 10:27:35;;;;;;;1.97;0.60;;;;;;;-145.18;100.00;47344.13;4952850;29;20039;-69
2023/05/16 10:30:01;;;;;;;5.93;0.80;;;;;;;-145.18;100.00;47385.16;4951925;29;20036;-69
2023/05/16 10:32:27;;;;;;;0.73;0.30;;;;;;;-145.18;100.00;47379.28;4941735;29;20058;-69
2023/05/16 10:34:54;;;;;;;4.57;0.70;;;;;;;-145.18;100.00;47346.06;4944249;28;20119;-69
2023/05/16 10:37:20;;;;;;;2.77;0.70;;;;;;;-145.18;100.00;47307.00;4950918;29;20028;-69
2023/05/16 10:39:47;;;;;;;5.50;0.63;;;;;;;-145.18;100.00;47307.00;4929789;29;20046;-69
2023/05/16 10:42:17;;;;;;;2.10;0.50;;;;;;;-145.18;100.00;47297.22;4931020;29;20043;-69
2023/05/16 10:44:42;;;;;;;1.87;0.60;;;;;;;-145.18;100.00;47299.19;4948730;29;20039;-69
2023/05/16 10:47:08;;;;;;;3.37;0.60;;;;;;;-145.18;100.00;47285.50;4946922;29;20027;-69
2023/05/16 10:49:33;;;;;;;2.10;0.53;;;;;;;-145.18;100.00;47273.78;4948991;29;20043;-68
2023/05/16 10:52:10;;;;;;;5.00;0.70;;;;;;;-145.18;100.00;47281.59;4942724;29;20035;-69
2023/05/16 10:54:39;;;;;;;5.17;0.80;;;;;;;-145.18;100.00;47353.88;4940564;29;20058;-68
2023/05/16 10:57:10;;;;;;;6.60;0.60;;;;;;;-145.18;100.00;47353.88;4945732;28;20046;-69
2023/05/16 10:59:47;;;;;;;5.40;0.77;;;;;;;-145.18;100.00;47299.19;4939977;29;20381;-69
2023/05/16 11:02:21;;;;;;;6.07;0.60;;;;;;;-145.18;100.00;47297.22;4937651;29;20027;-68
2023/05/16 11:04:51;;;;;;;1.83;0.90;;;;;;;-145.18;100.00;47318.72;4943534;29;20031;-69
2023/05/16 11:07:20;;;;;;;4.83;0.80;;;;;;;-145.18;100.00;47299.19;4937193;29;20035;-69